Aktea Osrv — SXJR — position and weather

sailwx.info

Track history (hours):
 
Tides and Currents Weather Stations Pressure Air Temp Water Temp Dewpoint Dewpoint Depression Visibility Wind Speed Wind Dir Waves Ship Positions

Aktea Osrv

Last reported at 2018-Jan-23 07:08 UTC. Time now 2018-Jan-24 11:58 UTC.
Position N 36°58' E 026°28'.

Length 79 m; draft 4.6 m.

Type: Tanker. MMSI: 240675000.

Date/timePositionNaut miles runAvg speedWind from/ knotsBaromVisibWave heightAir tempDewpointWater temp
2018-Jan-23 07:08N 36°58' E 026°28'1 7.6
2018-Jan-23 06:58N 36°58' E 026°26'5 7.0
2018-Jan-23 06:18N 36°56' E 026°21'2 6.6
2018-Jan-23 05:59N 36°55' E 026°19'4 6.4
2018-Jan-23 05:20N 36°55' E 026°13'3 6.8
2018-Jan-23 04:56N 36°53' E 026°11'3 6.4
2018-Jan-23 04:30N 36°52' E 026°08'4 7.4
2018-Jan-23 04:00N 36°50' E 026°03'4 7.8
2018-Jan-23 03:30N 36°48' E 025°59'4 7.9
2018-Jan-23 03:00N 36°47' E 025°55'4 8.0
2018-Jan-23 02:30N 36°45' E 025°50'4 7.9
2018-Jan-23 02:01N 36°45' E 025°45'4 7.2
2018-Jan-23 01:30N 36°45' E 025°41'4 7.0
2018-Jan-23 01:00N 36°46' E 025°36'4 7.4
2018-Jan-23 00:30N 36°46' E 025°32'4 7.3
2018-Jan-23 00:00N 36°47' E 025°27'4 7.6
2018-Jan-22 23:30N 36°48' E 025°23'4 7.4
2018-Jan-22 23:00N 36°49' E 025°19'4 7.4
2018-Jan-22 22:30N 36°51' E 025°14'4 7.5
2018-Jan-22 22:01N 36°52' E 025°10'4 7.6
2018-Jan-22 21:31N 36°53' E 025°05'4 7.4
2018-Jan-22 21:01N 36°54' E 025°01'4 7.2
2018-Jan-22 20:30N 36°56' E 024°57'4 7.3
2018-Jan-22 20:01N 36°58' E 024°53'4 7.4
2018-Jan-22 19:31N 37°01' E 024°50'5 7.7
2018-Jan-22 18:49N 37°04' E 024°45'2 7.6
2018-Jan-22 18:31N 37°06' E 024°43'9 7.6
2018-Jan-22 17:21N 37°12' E 024°35'3 7.6
2018-Jan-22 17:01N 37°14' E 024°32'4 7.6
2018-Jan-22 16:30N 37°16' E 024°29'4 7.5
2018-Jan-22 16:01N 37°17' E 024°24'4 7.3
2018-Jan-22 15:31N 37°18' E 024°20'4 8.0
2018-Jan-22 15:01N 37°22' E 024°18'4 7.5
2018-Jan-22 14:31N 37°25' E 024°16'4 7.1
2018-Jan-22 14:00N 37°28' E 024°12'4 7.4
2018-Jan-22 13:31N 37°30' E 024°08'4 7.7
2018-Jan-22 13:00N 37°31' E 024°04'14 7.8
2018-Jan-22 11:14N 37°37' E 023°48'2 7.4
2018-Jan-22 11:00N 37°37' E 023°46'4 7.3
2018-Jan-22 10:30N 37°37' E 023°41'4 7.3
2018-Jan-22 09:59N 37°37' E 023°37'4 7.7
2018-Jan-22 09:29N 37°38' E 023°32'4 8.0
2018-Jan-22 09:00N 37°39' E 023°27'4 7.8
2018-Jan-22 08:31N 37°40' E 023°22'4 7.7
2018-Jan-22 08:00N 37°41' E 023°18'4 8.2
2018-Jan-22 07:30N 37°45' E 023°15'4 8.1
2018-Jan-22 06:58N 37°48' E 023°13'4 7.9
2018-Jan-22 06:31N 37°51' E 023°10'4 8.2
2018-Jan-22 06:01N 37°54' E 023°06'1 2.2
2018-Jan-22 05:28N 37°55' E 023°05'0 0.0
2018-Jan-22 04:58N 37°55' E 023°05'0 0.0
2018-Jan-22 04:28N 37°55' E 023°05'0 0.0
2018-Jan-22 03:58N 37°55' E 023°05'0 0.0
2018-Jan-22 03:28N 37°55' E 023°05'0 0.0
2018-Jan-22 02:58N 37°55' E 023°05'0 0.0
2018-Jan-22 02:28N 37°55' E 023°05'0 0.0
2018-Jan-22 01:58N 37°55' E 023°05'0 0.0
2018-Jan-22 01:28N 37°55' E 023°05'0 0.0
2018-Jan-22 00:58N 37°55' E 023°05'0 0.0
2018-Jan-22 00:28N 37°55' E 023°05'0 0.0
2018-Jan-21 23:58N 37°55' E 023°05'0 0.0
2018-Jan-21 23:28N 37°55' E 023°05'0 0.0
2018-Jan-21 22:58N 37°55' E 023°05'0 0.0
2018-Jan-21 22:28N 37°55' E 023°05'0 0.0
2018-Jan-21 21:58N 37°55' E 023°05'0 0.0
2018-Jan-21 21:30N 37°55' E 023°05'0 0.0
2018-Jan-21 21:00N 37°55' E 023°05'0 0.0
2018-Jan-21 20:30N 37°55' E 023°05'0 0.0
2018-Jan-21 20:00N 37°55' E 023°05'0 0.0
2018-Jan-21 19:30N 37°55' E 023°05'0 0.0
2018-Jan-21 19:00N 37°55' E 023°05'0 0.0
2018-Jan-21 18:30N 37°55' E 023°05'1 1.7
2018-Jan-21 18:00N 37°55' E 023°06'0 0.1
2018-Jan-21 17:30N 37°55' E 023°06'0 0.0
2018-Jan-21 17:00N 37°55' E 023°06'0 0.1
2018-Jan-21 16:30N 37°55' E 023°06'0 0.1
2018-Jan-21 16:00N 37°55' E 023°06'0 0.0
2018-Jan-21 15:30N 37°55' E 023°06'0 0.0
2018-Jan-21 15:00N 37°55' E 023°06'0 0.0
2018-Jan-21 14:30N 37°55' E 023°06'0 0.0
2018-Jan-21 14:00N 37°55' E 023°06'0 0.0
2018-Jan-21 13:30N 37°55' E 023°06'0 0.1
2018-Jan-21 13:00N 37°55' E 023°06'3 5.3
2018-Jan-21 12:30N 37°53' E 023°09'4 8.0
2018-Jan-21 12:00N 37°50' E 023°12'4 8.7
2018-Jan-21 11:30N 37°46' E 023°15'4 8.5
2018-Jan-21 11:00N 37°42' E 023°17'4 7.5
2018-Jan-21 10:29N 37°40' E 023°21'4 8.6
2018-Jan-21 10:00N 37°39' E 023°26'4 8.2
2018-Jan-21 09:28N 37°37' E 023°31'5 8.4
2018-Jan-21 08:56N 37°33' E 023°34'4 8.4
2018-Jan-21 08:28N 37°30' E 023°36'5 7.8
2018-Jan-21 07:47N 37°24' E 023°36'2 8.3
2018-Jan-21 07:30N 37°22' E 023°36'  
Track history (hours):
 
Tides and Currents Weather Stations Pressure Air Temp Water Temp Dewpoint Dewpoint Depression Visibility Wind Speed Wind Dir Waves Ship Positions

Aktea Osrv

Last reported at 2018-Jan-23 07:08 UTC. Time now 2018-Jan-24 11:58 UTC.
Position N 36°58' E 026°28'.

Length 79 m; draft 4.6 m.

Type: Tanker. MMSI: 240675000.

Date/timePositionNaut miles runAvg speedWind from/ knotsBaromVisibWave heightAir tempDewpointWater temp
2018-Jan-23 07:08N 36°58' E 026°28'1 7.6
2018-Jan-23 06:58N 36°58' E 026°26'5 7.0
2018-Jan-23 06:18N 36°56' E 026°21'2 6.6
2018-Jan-23 05:59N 36°55' E 026°19'4 6.4
2018-Jan-23 05:20N 36°55' E 026°13'3 6.8
2018-Jan-23 04:56N 36°53' E 026°11'3 6.4
2018-Jan-23 04:30N 36°52' E 026°08'4 7.4
2018-Jan-23 04:00N 36°50' E 026°03'4 7.8
2018-Jan-23 03:30N 36°48' E 025°59'4 7.9
2018-Jan-23 03:00N 36°47' E 025°55'4 8.0
2018-Jan-23 02:30N 36°45' E 025°50'4 7.9
2018-Jan-23 02:01N 36°45' E 025°45'4 7.2
2018-Jan-23 01:30N 36°45' E 025°41'4 7.0
2018-Jan-23 01:00N 36°46' E 025°36'4 7.4
2018-Jan-23 00:30N 36°46' E 025°32'4 7.3
2018-Jan-23 00:00N 36°47' E 025°27'4 7.6
2018-Jan-22 23:30N 36°48' E 025°23'4 7.4
2018-Jan-22 23:00N 36°49' E 025°19'4 7.4
2018-Jan-22 22:30N 36°51' E 025°14'4 7.5
2018-Jan-22 22:01N 36°52' E 025°10'4 7.6
2018-Jan-22 21:31N 36°53' E 025°05'4 7.4
2018-Jan-22 21:01N 36°54' E 025°01'4 7.2
2018-Jan-22 20:30N 36°56' E 024°57'4 7.3
2018-Jan-22 20:01N 36°58' E 024°53'4 7.4
2018-Jan-22 19:31N 37°01' E 024°50'5 7.7
2018-Jan-22 18:49N 37°04' E 024°45'2 7.6
2018-Jan-22 18:31N 37°06' E 024°43'9 7.6
2018-Jan-22 17:21N 37°12' E 024°35'3 7.6
2018-Jan-22 17:01N 37°14' E 024°32'4 7.6
2018-Jan-22 16:30N 37°16' E 024°29'4 7.5
2018-Jan-22 16:01N 37°17' E 024°24'4 7.3
2018-Jan-22 15:31N 37°18' E 024°20'4 8.0
2018-Jan-22 15:01N 37°22' E 024°18'4 7.5
2018-Jan-22 14:31N 37°25' E 024°16'4 7.1
2018-Jan-22 14:00N 37°28' E 024°12'4 7.4
2018-Jan-22 13:31N 37°30' E 024°08'4 7.7
2018-Jan-22 13:00N 37°31' E 024°04'14 7.8
2018-Jan-22 11:14N 37°37' E 023°48'2 7.4
2018-Jan-22 11:00N 37°37' E 023°46'4 7.3
2018-Jan-22 10:30N 37°37' E 023°41'4 7.3
2018-Jan-22 09:59N 37°37' E 023°37'4 7.7
2018-Jan-22 09:29N 37°38' E 023°32'4 8.0
2018-Jan-22 09:00N 37°39' E 023°27'4 7.8
2018-Jan-22 08:31N 37°40' E 023°22'4 7.7
2018-Jan-22 08:00N 37°41' E 023°18'4 8.2
2018-Jan-22 07:30N 37°45' E 023°15'4 8.1
2018-Jan-22 06:58N 37°48' E 023°13'4 7.9
2018-Jan-22 06:31N 37°51' E 023°10'4 8.2
2018-Jan-22 06:01N 37°54' E 023°06'1 2.2
2018-Jan-22 05:28N 37°55' E 023°05'0 0.0
2018-Jan-22 04:58N 37°55' E 023°05'0 0.0
2018-Jan-22 04:28N 37°55' E 023°05'0 0.0
2018-Jan-22 03:58N 37°55' E 023°05'0 0.0
2018-Jan-22 03:28N 37°55' E 023°05'0 0.0
2018-Jan-22 02:58N 37°55' E 023°05'0 0.0
2018-Jan-22 02:28N 37°55' E 023°05'0 0.0
2018-Jan-22 01:58N 37°55' E 023°05'0 0.0
2018-Jan-22 01:28N 37°55' E 023°05'0 0.0
2018-Jan-22 00:58N 37°55' E 023°05'0 0.0
2018-Jan-22 00:28N 37°55' E 023°05'0 0.0
2018-Jan-21 23:58N 37°55' E 023°05'0 0.0
2018-Jan-21 23:28N 37°55' E 023°05'0 0.0
2018-Jan-21 22:58N 37°55' E 023°05'0 0.0
2018-Jan-21 22:28N 37°55' E 023°05'0 0.0
2018-Jan-21 21:58N 37°55' E 023°05'0 0.0
2018-Jan-21 21:30N 37°55' E 023°05'0 0.0
2018-Jan-21 21:00N 37°55' E 023°05'0 0.0
2018-Jan-21 20:30N 37°55' E 023°05'0 0.0
2018-Jan-21 20:00N 37°55' E 023°05'0 0.0
2018-Jan-21 19:30N 37°55' E 023°05'0 0.0
2018-Jan-21 19:00N 37°55' E 023°05'0 0.0
2018-Jan-21 18:30N 37°55' E 023°05'1 1.7
2018-Jan-21 18:00N 37°55' E 023°06'0 0.1
2018-Jan-21 17:30N 37°55' E 023°06'0 0.0
2018-Jan-21 17:00N 37°55' E 023°06'0 0.1
2018-Jan-21 16:30N 37°55' E 023°06'0 0.1
2018-Jan-21 16:00N 37°55' E 023°06'0 0.0
2018-Jan-21 15:30N 37°55' E 023°06'0 0.0
2018-Jan-21 15:00N 37°55' E 023°06'0 0.0
2018-Jan-21 14:30N 37°55' E 023°06'0 0.0
2018-Jan-21 14:00N 37°55' E 023°06'0 0.0
2018-Jan-21 13:30N 37°55' E 023°06'0 0.1
2018-Jan-21 13:00N 37°55' E 023°06'3 5.3
2018-Jan-21 12:30N 37°53' E 023°09'4 8.0
2018-Jan-21 12:00N 37°50' E 023°12'4 8.7
2018-Jan-21 11:30N 37°46' E 023°15'4 8.5
2018-Jan-21 11:00N 37°42' E 023°17'4 7.5
2018-Jan-21 10:29N 37°40' E 023°21'4 8.6
2018-Jan-21 10:00N 37°39' E 023°26'4 8.2
2018-Jan-21 09:28N 37°37' E 023°31'5 8.4
2018-Jan-21 08:56N 37°33' E 023°34'4 8.4
2018-Jan-21 08:28N 37°30' E 023°36'5 7.8
2018-Jan-21 07:47N 37°24' E 023°36'2 8.3
2018-Jan-21 07:30N 37°22' E 023°36'  

Dump ship's entire track history